Time;durP1;ratioP1;P1;durP2;ratioP2;P2;SDS_P1;SDS_P2;PMS_P1;PMS_P2;Temp;Humidity;BMP_temperature;BMP_pressure;BME280_temperature;BME280_humidity;BME280_pressure;Samples;Min_cycle;Max_cycle;Signal;HPM_P1;HPM_P2
2022/10/30 00:00:28;;;;;;;23.50;12.02;;;14.50;99.90;;;;;;5060417;28;20036;-61
2022/10/30 00:02:53;;;;;;;22.80;12.98;;;14.50;99.90;;;;;;5061168;28;20089;-61
2022/10/30 00:05:19;;;;;;;25.50;12.45;;;14.40;99.90;;;;;;5065312;28;20071;-61
2022/10/30 00:07:48;;;;;;;19.42;11.70;;;14.50;99.90;;;;;;5068934;28;20043;-61
2022/10/30 00:10:15;;;;;;;23.92;12.65;;;14.60;99.90;;;;;;5061672;28;20071;-61
2022/10/30 00:12:41;;;;;;;23.77;12.75;;;14.70;99.90;;;;;;5062003;28;20395;-62
2022/10/30 00:15:07;;;;;;;21.73;12.68;;;14.80;99.90;;;;;;5065105;28;20095;-60
2022/10/30 00:17:33;;;;;;;20.75;11.80;;;14.80;99.90;;;;;;5064816;28;20068;-61
2022/10/30 00:19:58;;;;;;;23.40;12.57;;;14.60;99.90;;;;;;5064747;28;20147;-61
2022/10/30 00:22:24;;;;;;;25.00;12.18;;;14.60;99.90;;;;;;5047233;28;20047;-60
2022/10/30 00:24:50;;;;;;;26.75;12.82;;;14.60;99.90;;;;;;5064616;28;20479;-61
2022/10/30 00:27:15;;;;;;;17.95;11.95;;;14.60;99.90;;;;;;5065220;28;20098;-61
2022/10/30 00:29:41;;;;;;;20.55;11.73;;;14.60;99.90;;;;;;5064797;28;20028;-61
2022/10/30 00:32:07;;;;;;;21.00;11.73;;;14.60;99.90;;;;;;5063923;28;20083;-61
2022/10/30 00:34:32;;;;;;;18.17;11.18;;;14.70;99.90;;;;;;5064362;28;20048;-61
2022/10/30 00:36:58;;;;;;;19.60;11.50;;;14.60;99.90;;;;;;5064507;28;20112;-61
2022/10/30 00:39:24;;;;;;;19.63;11.73;;;14.50;99.90;;;;;;5080201;28;20048;-61
2022/10/30 00:41:49;;;;;;;24.75;11.77;;;14.60;99.90;;;;;;5063756;28;20041;-61
2022/10/30 00:44:43;;;;;;;17.92;11.50;;;14.60;99.90;;;;;;5065280;28;20044;-61
2022/10/30 00:47:33;;;;;;;24.80;11.65;;;14.60;99.90;;;;;;5063259;28;20089;-61
2022/10/30 00:50:33;;;;;;;18.75;10.50;;;14.40;99.90;;;;;;5046236;28;20131;-61
2022/10/30 00:53:10;;;;;;;22.83;11.18;;;14.50;99.90;;;;;;5065028;28;20041;-61
2022/10/30 00:55:57;;;;;;;23.42;12.25;;;14.50;99.90;;;;;;5064776;28;20048;-61
2022/10/30 00:58:30;;;;;;;22.23;10.90;;;14.50;99.90;;;;;;5063791;28;20116;-62
2022/10/30 01:00:59;;;;;;;22.88;11.60;;;14.50;99.90;;;;;;5062893;28;20052;-61
2022/10/30 01:03:27;;;;;;;19.45;10.82;;;14.50;99.90;;;;;;5063159;28;20093;-61
2022/10/30 01:05:57;;;;;;;23.40;11.68;;;14.30;99.90;;;;;;5071592;28;20052;-61
2022/10/30 01:08:23;;;;;;;20.73;10.85;;;14.30;99.90;;;;;;5065788;28;20055;-61
2022/10/30 01:10:49;;;;;;;22.98;11.75;;;14.40;99.90;;;;;;5063212;28;20105;-61
2022/10/30 01:13:17;;;;;;;21.52;11.45;;;14.20;99.90;;;;;;5063758;28;20045;-60
2022/10/30 01:16:01;;;;;;;19.75;11.25;;;14.30;99.90;;;;;;5044608;28;20086;-61
2022/10/30 01:18:32;;;;;;;23.63;11.13;;;14.00;99.90;;;;;;5062648;28;20044;-61
2022/10/30 01:21:16;;;;;;;18.63;10.65;;;14.20;99.90;;;;;;5061990;28;20040;-61
2022/10/30 01:24:16;;;;;;;22.08;11.63;;;14.00;99.90;;;;;;5063471;28;20044;-60
2022/10/30 01:27:07;;;;;;;26.05;11.40;;;14.20;99.90;;;;;;5052636;28;20057;-61
2022/10/30 01:29:46;;;;;;;27.65;11.45;;;13.90;99.90;;;;;;5062694;28;20040;-61
2022/10/30 01:32:26;;;;;;;19.05;10.90;;;13.90;99.90;;;;;;5062459;28;20523;-62
2022/10/30 01:35:22;;;;;;;19.65;11.20;;;13.80;99.90;;;;;;5063310;28;20048;-61
2022/10/30 01:38:14;;;;;;;21.17;11.90;;;14.00;99.90;;;;;;5064514;28;20032;-61
2022/10/30 01:40:41;;;;;;;21.95;11.57;;;13.80;99.90;;;;;;5045112;28;20045;-61
2022/10/30 01:43:08;;;;;;;19.13;11.32;;;13.80;99.90;;;;;;5045156;28;20119;-61
2022/10/30 01:46:11;;;;;;;18.80;12.05;;;13.80;99.90;;;;;;5078200;28;20044;-61
2022/10/30 01:49:09;;;;;;;21.40;11.75;;;13.70;99.90;;;;;;5062057;28;20128;-61
2022/10/30 01:52:12;;;;;;;27.45;12.48;;;13.90;99.90;;;;;;5064021;28;20119;-61
2022/10/30 01:55:06;;;;;;;23.90;11.90;;;13.80;99.90;;;;;;5044787;28;20049;-61
2022/10/30 01:57:56;;;;;;;24.07;12.10;;;13.70;99.90;;;;;;5063368;28;20843;-61
2022/10/30 02:00:22;;;;;;;24.70;12.80;;;13.70;99.90;;;;;;5062714;28;20287;-61
2022/10/30 02:02:49;;;;;;;21.00;12.63;;;13.80;99.90;;;;;;5063131;28;20070;-61
2022/10/30 02:05:37;;;;;;;23.52;12.00;;;13.80;99.90;;;;;;5067369;28;20048;-61
2022/10/30 02:08:03;;;;;;;22.50;12.15;;;13.70;99.90;;;;;;5049134;28;20049;-61
2022/10/30 02:10:30;;;;;;;26.05;12.30;;;13.80;99.90;;;;;;5044364;28;20638;-61
2022/10/30 02:12:56;;;;;;;19.20;12.20;;;13.60;99.90;;;;;;5127982;23;20474;-61
2022/10/30 02:15:22;;;;;;;20.65;12.27;;;13.80;99.90;;;;;;5027274;28;20076;-61
2022/10/30 02:17:48;;;;;;;19.45;12.07;;;13.80;99.90;;;;;;5022186;28;20098;-61
2022/10/30 02:20:18;;;;;;;23.70;12.60;;;13.80;99.90;;;;;;5022964;28;20237;-61
2022/10/30 02:22:44;;;;;;;20.33;12.20;;;13.60;99.90;;;;;;5022897;28;20112;-61
2022/10/30 02:25:09;;;;;;;24.67;12.20;;;13.70;99.90;;;;;;5022514;28;20045;-62
2022/10/30 02:27:35;;;;;;;22.33;12.55;;;13.70;99.90;;;;;;5022014;28;20067;-61
2022/10/30 02:30:01;;;;;;;21.05;12.13;;;13.60;99.90;;;;;;5003685;28;20053;-61
2022/10/30 02:32:26;;;;;;;27.05;12.73;;;13.60;99.90;;;;;;5021765;28;20071;-61
2022/10/30 02:34:52;;;;;;;25.45;12.20;;;13.60;99.90;;;;;;5022456;28;20038;-61
2022/10/30 02:37:18;;;;;;;22.30;11.98;;;13.60;99.90;;;;;;5023620;28;20069;-61
2022/10/30 02:39:43;;;;;;;20.25;12.00;;;13.70;99.90;;;;;;5022660;28;20136;-61
2022/10/30 02:42:10;;;;;;;21.23;11.73;;;13.80;99.90;;;;;;5021591;28;20125;-61
2022/10/30 02:44:36;;;;;;;19.92;11.60;;;13.70;99.90;;;;;;5022273;28;20095;-61
2022/10/30 02:47:01;;;;;;;21.58;12.13;;;13.70;99.90;;;;;;5021962;28;20049;-61
2022/10/30 02:49:27;;;;;;;21.65;11.85;;;13.80;99.90;;;;;;5004436;28;20488;-61
2022/10/30 02:51:52;;;;;;;21.25;11.98;;;13.80;99.90;;;;;;5022616;28;20041;-61
2022/10/30 02:54:18;;;;;;;23.80;11.98;;;13.80;99.90;;;;;;5004975;28;20403;-61
2022/10/30 02:56:44;;;;;;;18.27;12.15;;;13.60;99.90;;;;;;5022685;28;20038;-61
2022/10/30 02:59:09;;;;;;;23.95;12.15;;;13.80;99.90;;;;;;5021463;28;20034;-61
2022/10/30 03:01:35;;;;;;;24.05;13.20;;;13.60;99.90;;;;;;5022011;28;20076;-60
2022/10/30 03:04:00;;;;;;;22.45;12.13;;;13.70;99.90;;;;;;5023294;28;20037;-61
2022/10/30 03:06:26;;;;;;;21.77;11.50;;;13.60;99.90;;;;;;5014365;28;20053;-61
2022/10/30 03:08:52;;;;;;;22.50;11.55;;;13.60;99.90;;;;;;4983548;28;20054;-61
2022/10/30 03:11:19;;;;;;;19.38;11.73;;;13.70;99.90;;;;;;5002359;28;20492;-61
2022/10/30 03:13:46;;;;;;;23.40;12.32;;;13.60;99.90;;;;;;5002370;28;20050;-61
2022/10/30 03:16:15;;;;;;;21.42;12.23;;;13.70;99.90;;;;;;5001728;28;20103;-61
2022/10/30 03:18:41;;;;;;;18.50;11.20;;;13.60;99.90;;;;;;5002392;28;20073;-60
2022/10/30 03:21:09;;;;;;;18.02;11.40;;;13.80;99.90;;;;;;5003376;28;20598;-61
2022/10/30 03:23:34;;;;;;;19.30;12.27;;;13.70;99.90;;;;;;4985206;28;20129;-61
2022/10/30 03:26:00;;;;;;;22.02;12.77;;;13.80;99.90;;;;;;5002045;28;20076;-61
2022/10/30 03:28:27;;;;;;;21.13;12.40;;;13.70;99.90;;;;;;4985034;28;20054;-61
2022/10/30 03:31:11;;;;;;;21.02;11.80;;;13.80;99.90;;;;;;5001700;28;20042;-59
2022/10/30 03:33:37;;;;;;;22.15;11.90;;;13.90;99.90;;;;;;4984328;28;20046;-61
2022/10/30 03:36:05;;;;;;;21.38;11.80;;;13.60;99.90;;;;;;4985020;28;20816;-61
2022/10/30 03:38:31;;;;;;;19.77;12.30;;;13.60;99.90;;;;;;5002248;28;20583;-61
2022/10/30 03:40:57;;;;;;;19.15;11.45;;;13.70;99.90;;;;;;5001964;28;20523;-61
2022/10/30 03:43:23;;;;;;;24.00;12.30;;;13.60;99.90;;;;;;5002269;28;20128;-62
2022/10/30 03:45:51;;;;;;;24.65;11.35;;;13.60;99.90;;;;;;5001860;28;20038;-61
2022/10/30 03:48:19;;;;;;;19.02;11.63;;;13.50;99.90;;;;;;4987577;28;20065;-61
2022/10/30 03:50:45;;;;;;;20.25;11.90;;;13.70;99.90;;;;;;5005236;28;20045;-61
2022/10/30 03:53:12;;;;;;;16.85;11.25;;;13.60;99.90;;;;;;4988396;28;20144;-61
2022/10/30 03:55:37;;;;;;;23.92;12.05;;;13.60;99.90;;;;;;5006552;28;20054;-59
2022/10/30 03:58:04;;;;;;;19.80;11.52;;;13.70;99.90;;;;;;5006064;28;20044;-61
2022/10/30 04:00:30;;;;;;;18.60;12.15;;;13.70;99.90;;;;;;5005974;28;20117;-61
2022/10/30 04:02:55;;;;;;;17.40;11.15;;;14.20;99.90;;;;;;5005655;28;20137;-61
2022/10/30 04:05:22;;;;;;;21.92;11.77;;;13.50;99.90;;;;;;5009937;28;20045;-61
2022/10/30 04:07:53;;;;;;;20.23;12.15;;;13.70;99.90;;;;;;5012662;28;20042;-61
2022/10/30 04:10:19;;;;;;;24.17;12.05;;;13.60;99.90;;;;;;5005244;28;20062;-63
2022/10/30 04:12:45;;;;;;;22.70;12.02;;;13.40;99.90;;;;;;5005891;28;20104;-61
2022/10/30 04:15:10;;;;;;;18.17;12.35;;;13.50;99.90;;;;;;5005555;28;20500;-61
2022/10/30 04:17:36;;;;;;;22.33;12.13;;;13.50;99.90;;;;;;5005034;28;20049;-61
2022/10/30 04:20:02;;;;;;;22.65;12.82;;;13.40;99.90;;;;;;5005585;28;20033;-61
2022/10/30 04:22:28;;;;;;;22.02;12.15;;;13.30;99.90;;;;;;5006131;28;20096;-60
2022/10/30 04:24:53;;;;;;;24.10;12.73;;;13.50;99.90;;;;;;5004210;28;20084;-61
2022/10/30 04:27:19;;;;;;;26.70;12.15;;;13.40;99.90;;;;;;5006469;28;20507;-61
2022/10/30 04:29:45;;;;;;;19.58;13.07;;;13.30;99.90;;;;;;5005673;28;20562;-61
2022/10/30 04:32:11;;;;;;;26.77;12.73;;;13.40;99.90;;;;;;5004037;28;20038;-61
2022/10/30 04:34:38;;;;;;;17.83;11.90;;;13.40;99.90;;;;;;4986943;28;20105;-61
2022/10/30 04:37:05;;;;;;;22.08;12.43;;;13.20;99.90;;;;;;5005077;28;20057;-62
2022/10/30 04:39:31;;;;;;;23.55;12.88;;;13.20;99.90;;;;;;5004387;28;20054;-61
2022/10/30 04:41:56;;;;;;;24.02;12.57;;;13.10;99.90;;;;;;5005889;28;20460;-61
2022/10/30 04:44:23;;;;;;;23.08;12.98;;;13.20;99.90;;;;;;5005685;28;20095;-61
2022/10/30 04:46:48;;;;;;;20.45;12.40;;;13.00;99.90;;;;;;5004696;28;20068;-60
2022/10/30 04:49:14;;;;;;;22.08;13.13;;;13.10;99.90;;;;;;5003655;28;20046;-61
2022/10/30 04:51:40;;;;;;;25.73;13.27;;;12.90;99.90;;;;;;4987749;28;20050;-61
2022/10/30 04:54:05;;;;;;;23.42;12.50;;;12.90;99.90;;;;;;5005455;28;20049;-61
2022/10/30 04:56:31;;;;;;;21.48;12.80;;;13.00;99.90;;;;;;5005537;28;20045;-61
2022/10/30 04:58:58;;;;;;;24.35;12.77;;;12.90;99.90;;;;;;4986572;28;20065;-61
2022/10/30 05:01:24;;;;;;;20.45;13.10;;;12.80;99.90;;;;;;5004540;28;20050;-61
2022/10/30 05:03:49;;;;;;;22.63;13.20;;;12.70;99.90;;;;;;5004546;28;20040;-61
2022/10/30 05:06:24;;;;;;;20.45;13.27;;;12.70;99.90;;;;;;5015607;28;20103;-61
2022/10/30 05:08:50;;;;;;;23.05;13.55;;;12.80;99.90;;;;;;5005229;28;20042;-61
2022/10/30 05:11:17;;;;;;;23.42;13.02;;;12.60;99.90;;;;;;5004996;28;20088;-61
2022/10/30 05:13:42;;;;;;;23.65;13.57;;;12.80;99.90;;;;;;5002756;28;20153;-59
2022/10/30 05:16:08;;;;;;;25.45;13.45;;;12.60;99.90;;;;;;5004772;28;20777;-61
2022/10/30 05:18:34;;;;;;;18.88;13.43;;;12.60;99.90;;;;;;5004538;28;20068;-61
2022/10/30 05:20:59;;;;;;;24.15;14.00;;;12.60;99.90;;;;;;4987385;28;20045;-64
2022/10/30 05:23:25;;;;;;;24.38;14.43;;;12.60;99.90;;;;;;5003609;28;20485;-61
2022/10/30 05:25:50;;;;;;;22.88;13.50;;;12.70;99.90;;;;;;5004888;28;20484;-61
2022/10/30 05:28:16;;;;;;;26.67;13.52;;;12.60;99.90;;;;;;5004759;28;20532;-61
2022/10/30 05:30:42;;;;;;;22.48;13.77;;;12.60;99.90;;;;;;5003303;28;20085;-61
2022/10/30 05:33:10;;;;;;;23.23;13.20;;;12.50;99.90;;;;;;5003751;28;20079;-61
2022/10/30 05:35:37;;;;;;;22.77;13.13;;;12.50;99.90;;;;;;5004205;28;20440;-61
2022/10/30 05:38:05;;;;;;;24.15;13.73;;;12.50;99.90;;;;;;5004539;28;20038;-61
2022/10/30 05:40:32;;;;;;;22.20;13.82;;;12.60;99.90;;;;;;5003929;28;20062;-61
2022/10/30 05:42:58;;;;;;;23.85;13.13;;;12.70;99.90;;;;;;5004130;28;20038;-62
2022/10/30 05:45:23;;;;;;;26.25;13.20;;;12.50;99.90;;;;;;5003235;28;20769;-61
2022/10/30 05:48:00;;;;;;;21.50;13.65;;;12.60;99.90;;;;;;5003622;28;20082;-61
2022/10/30 05:50:26;;;;;;;21.42;13.15;;;12.50;99.90;;;;;;5002928;28;20460;-61
2022/10/30 05:52:57;;;;;;;18.98;13.32;;;12.50;99.90;;;;;;5004157;28;20041;-61
2022/10/30 05:55:23;;;;;;;26.67;13.75;;;12.70;99.90;;;;;;5003744;28;20049;-61
2022/10/30 05:57:49;;;;;;;25.95;13.50;;;12.50;99.90;;;;;;5003957;28;20044;-61
2022/10/30 06:00:15;;;;;;;22.20;13.13;;;12.60;99.90;;;;;;5003990;28;20129;-61
2022/10/30 06:02:41;;;;;;;25.05;14.48;;;12.60;99.90;;;;;;5003678;28;20460;-60
2022/10/30 06:05:07;;;;;;;18.77;13.05;;;12.50;99.90;;;;;;5006575;28;20117;-60
2022/10/30 06:07:32;;;;;;;20.98;13.95;;;12.50;99.90;;;;;;5012565;28;20566;-61
2022/10/30 06:09:58;;;;;;;23.40;14.02;;;12.60;99.90;;;;;;5003343;28;20049;-61
2022/10/30 06:12:23;;;;;;;22.23;14.60;;;12.60;99.90;;;;;;5003948;28;20074;-60
2022/10/30 06:14:49;;;;;;;22.38;14.60;;;12.60;99.90;;;;;;4986708;28;20052;-61
2022/10/30 06:17:15;;;;;;;22.98;14.00;;;12.50;99.90;;;;;;5003676;28;20034;-61
2022/10/30 06:19:40;;;;;;;22.73;14.25;;;12.50;99.90;;;;;;4986654;28;20570;-62
2022/10/30 06:22:06;;;;;;;25.65;13.55;;;12.50;99.90;;;;;;5003095;28;20481;-61
2022/10/30 06:24:31;;;;;;;21.77;13.40;;;12.50;99.90;;;;;;5004399;28;20050;-61
2022/10/30 06:26:58;;;;;;;23.10;14.02;;;12.50;99.90;;;;;;5002789;28;20595;-61
2022/10/30 06:29:23;;;;;;;26.23;14.20;;;12.40;99.90;;;;;;5003175;28;20046;-61
2022/10/30 06:31:49;;;;;;;25.00;14.77;;;12.60;99.90;;;;;;5002054;28;20121;-61
2022/10/30 06:34:14;;;;;;;28.15;14.82;;;12.40;99.90;;;;;;5003163;28;20085;-61
2022/10/30 06:36:40;;;;;;;23.02;14.93;;;12.50;99.90;;;;;;4985487;28;20046;-61
2022/10/30 06:39:06;;;;;;;22.50;14.13;;;12.40;99.90;;;;;;4986154;28;20377;-61
2022/10/30 06:41:33;;;;;;;20.02;14.05;;;12.40;99.90;;;;;;5002938;28;20048;-61
2022/10/30 06:43:59;;;;;;;28.85;15.65;;;12.40;99.90;;;;;;5003053;28;20042;-60
2022/10/30 06:46:24;;;;;;;22.15;14.48;;;12.50;99.90;;;;;;5002276;28;20127;-60
2022/10/30 06:48:50;;;;;;;25.67;15.02;;;12.50;99.90;;;;;;5002048;28;20053;-61
2022/10/30 06:51:16;;;;;;;24.90;15.20;;;12.40;99.90;;;;;;4985537;28;20061;-61
2022/10/30 06:53:42;;;;;;;22.67;14.43;;;12.50;99.90;;;;;;5002193;28;20044;-61
2022/10/30 06:56:08;;;;;;;29.83;14.70;;;12.50;99.90;;;;;;5003218;28;20046;-61
2022/10/30 06:58:37;;;;;;;21.10;14.32;;;12.60;99.90;;;;;;5002208;28;20038;-61
2022/10/30 07:01:06;;;;;;;23.25;14.88;;;12.60;99.90;;;;;;5002135;28;20588;-61
2022/10/30 07:03:32;;;;;;;25.83;15.57;;;12.50;99.90;;;;;;4985200;28;20049;-60
2022/10/30 07:05:58;;;;;;;19.40;14.13;;;12.70;99.90;;;;;;4993211;28;20045;-61
2022/10/30 07:08:24;;;;;;;21.27;14.45;;;12.60;99.90;;;;;;5004021;28;20040;-61
2022/10/30 07:10:49;;;;;;;27.52;15.18;;;12.60;99.90;;;;;;5001686;28;20115;-61
2022/10/30 07:13:16;;;;;;;23.60;14.40;;;12.80;99.90;;;;;;5002107;28;20546;-61
2022/10/30 07:15:41;;;;;;;25.15;14.23;;;12.60;99.90;;;;;;5001140;28;20141;-63
2022/10/30 07:18:08;;;;;;;25.35;14.20;;;12.70;99.90;;;;;;5002328;28;20129;-61
2022/10/30 07:20:35;;;;;;;23.27;14.63;;;12.90;99.90;;;;;;5001667;28;20046;-61
2022/10/30 07:23:02;;;;;;;24.25;15.48;;;12.80;99.90;;;;;;5002029;28;20042;-61
2022/10/30 07:25:28;;;;;;;23.70;15.77;;;12.80;99.90;;;;;;5020964;28;20053;-61
2022/10/30 07:27:55;;;;;;;23.58;14.95;;;12.90;99.90;;;;;;5021414;28;20116;-60
2022/10/30 07:30:23;;;;;;;20.35;14.55;;;12.90;99.90;;;;;;5020279;28;20385;-59
2022/10/30 07:33:00;;;;;;;22.30;14.27;;;13.00;99.90;;;;;;5003686;28;20128;-61
2022/10/30 07:35:26;;;;;;;25.55;14.88;;;13.00;99.90;;;;;;5021640;28;20128;-60
2022/10/30 07:37:52;;;;;;;23.48;14.25;;;13.00;99.90;;;;;;5002537;28;20447;-60
2022/10/30 07:40:18;;;;;;;25.70;14.45;;;13.10;99.90;;;;;;5021330;28;20037;-61
2022/10/30 07:42:44;;;;;;;25.23;15.32;;;13.00;99.90;;;;;;5003201;28;20045;-61
2022/10/30 07:45:10;;;;;;;26.75;15.30;;;13.10;99.90;;;;;;5021485;28;20099;-61
2022/10/30 07:47:44;;;;;;;22.95;14.95;;;13.20;99.90;;;;;;5021214;28;20052;-61
2022/10/30 07:50:10;;;;;;;27.50;14.80;;;13.20;99.90;;;;;;5022341;28;20057;-61
2022/10/30 07:52:36;;;;;;;25.58;14.30;;;13.40;99.90;;;;;;5021442;28;20046;-62
2022/10/30 07:55:03;;;;;;;23.33;13.98;;;13.40;99.90;;;;;;5019878;28;20064;-61
2022/10/30 07:57:40;;;;;;;22.17;15.13;;;13.40;99.90;;;;;;5021980;28;20038;-60
2022/10/30 08:00:08;;;;;;;24.67;14.52;;;13.60;99.90;;;;;;5021320;28;20056;-61
2022/10/30 08:02:33;;;;;;;28.25;15.35;;;13.60;99.90;;;;;;5020967;28;20064;-61
2022/10/30 08:04:59;;;;;;;20.58;13.77;;;13.60;99.90;;;;;;5016900;28;20045;-61
2022/10/30 08:07:33;;;;;;;20.58;13.77;;;13.70;99.90;;;;;;4993028;28;20045;-61
2022/10/30 08:09:58;;;;;;;25.80;14.57;;;13.60;99.90;;;;;;5001564;28;20046;-61
2022/10/30 08:12:25;;;;;;;24.77;14.68;;;13.80;99.90;;;;;;5002231;28;20116;-61
2022/10/30 08:14:51;;;;;;;21.58;14.60;;;13.90;99.90;;;;;;5002248;28;20520;-61
2022/10/30 08:17:17;;;;;;;27.17;15.30;;;13.90;99.90;;;;;;4984155;28;20069;-61
2022/10/30 08:19:43;;;;;;;21.60;14.93;;;14.10;99.90;;;;;;5001188;28;20080;-61
2022/10/30 08:22:10;;;;;;;22.50;13.70;;;14.20;99.90;;;;;;5002658;28;20719;-61
2022/10/30 08:24:36;;;;;;;27.27;14.73;;;14.20;99.90;;;;;;4985833;28;20374;-61
2022/10/30 08:27:02;;;;;;;20.27;13.25;;;14.30;99.90;;;;;;5000845;28;20056;-61
2022/10/30 08:29:28;;;;;;;21.77;14.15;;;14.20;99.90;;;;;;5001393;28;20042;-61
2022/10/30 08:31:54;;;;;;;21.60;14.02;;;14.30;99.90;;;;;;5001201;28;20068;-61
2022/10/30 08:34:19;;;;;;;23.23;14.10;;;14.30;99.90;;;;;;5004577;28;20041;-60
2022/10/30 08:36:48;;;;;;;23.83;14.70;;;14.40;99.90;;;;;;5003908;28;20045;-60
2022/10/30 08:39:14;;;;;;;23.58;14.65;;;14.50;99.90;;;;;;5005859;28;20069;-61
2022/10/30 08:41:40;;;;;;;23.13;13.90;;;14.60;99.90;;;;;;5005900;28;20049;-61
2022/10/30 08:44:06;;;;;;;21.20;13.45;;;14.70;99.90;;;;;;5004114;28;20046;-61
2022/10/30 08:46:31;;;;;;;24.02;14.07;;;14.80;99.90;;;;;;4986503;28;20063;-62
2022/10/30 08:48:57;;;;;;;24.55;14.52;;;14.90;99.90;;;;;;5004389;28;20046;-61
2022/10/30 08:51:23;;;;;;;25.33;14.25;;;15.00;99.90;;;;;;5004514;28;20038;-61
2022/10/30 08:53:48;;;;;;;22.40;13.98;;;15.00;99.90;;;;;;5003872;28;20038;-62
2022/10/30 08:56:15;;;;;;;26.98;14.20;;;15.10;99.90;;;;;;5006889;28;20136;-61
2022/10/30 08:58:41;;;;;;;19.80;13.40;;;15.30;99.90;;;;;;5024958;28;20033;-61
2022/10/30 09:01:06;;;;;;;24.27;13.38;;;15.20;99.90;;;;;;5005403;28;20056;-61
2022/10/30 09:03:32;;;;;;;20.65;13.80;;;15.30;99.90;;;;;;5023354;28;20033;-61
2022/10/30 09:05:58;;;;;;;25.58;13.65;;;15.40;99.90;;;;;;5018369;28;20045;-61
2022/10/30 09:08:24;;;;;;;22.67;13.50;;;15.50;99.90;;;;;;5006427;28;20038;-61
2022/10/30 09:10:57;;;;;;;21.90;13.05;;;15.70;99.90;;;;;;5003851;28;20416;-61
2022/10/30 09:13:23;;;;;;;26.30;12.93;;;15.80;99.90;;;;;;5023779;28;20057;-61
2022/10/30 09:15:49;;;;;;;23.00;13.45;;;16.00;99.90;;;;;;5005563;28;20060;-61
2022/10/30 09:18:15;;;;;;;24.10;13.98;;;16.20;99.90;;;;;;5024052;28;20129;-60
2022/10/30 09:20:41;;;;;;;22.77;12.38;;;16.60;99.90;;;;;;5024315;28;20676;-61
2022/10/30 09:23:07;;;;;;;22.33;12.98;;;16.70;99.90;;;;;;5024497;28;20116;-61
2022/10/30 09:25:32;;;;;;;22.90;12.27;;;17.20;99.90;;;;;;5024485;28;20600;-61
2022/10/30 09:27:58;;;;;;;18.77;11.30;;;17.70;99.90;;;;;;5023643;28;20038;-61
2022/10/30 09:30:24;;;;;;;22.42;12.43;;;18.00;99.90;;;;;;5023367;28;20049;-61
2022/10/30 09:32:57;;;;;;;20.65;12.35;;;18.10;99.90;;;;;;5023805;28;20678;-61
2022/10/30 09:35:23;;;;;;;18.13;10.57;;;18.60;99.90;;;;;;5023179;28;20122;-61
2022/10/30 09:37:48;;;;;;;17.95;11.98;;;19.10;99.90;;;;;;5024389;28;20560;-61
2022/10/30 09:40:20;;;;;;;19.35;11.80;;;19.40;99.90;;;;;;5024660;28;20041;-61
2022/10/30 09:42:47;;;;;;;21.67;11.63;;;19.80;99.90;;;;;;5024108;28;20479;-61
2022/10/30 09:45:21;;;;;;;22.20;11.50;;;19.40;99.90;;;;;;5022462;28;20046;-61
2022/10/30 09:48:09;;;;;;;17.30;11.82;;;19.60;99.90;;;;;;5006632;28;20053;-61
2022/10/30 09:50:47;;;;;;;18.48;10.70;;;19.80;99.90;;;;;;5005949;28;20049;-61
2022/10/30 09:53:29;;;;;;;21.48;11.70;;;20.10;99.90;;;;;;5005986;28;20434;-61
2022/10/30 09:56:00;;;;;;;18.02;11.77;;;20.40;99.90;;;;;;5022794;28;20095;-62
2022/10/30 09:58:42;;;;;;;20.30;11.27;;;20.60;99.90;;;;;;5023749;28;20037;-60
2022/10/30 10:01:18;;;;;;;17.05;10.70;;;20.90;99.90;;;;;;5004843;28;20049;-62
2022/10/30 10:04:02;;;;;;;21.35;10.93;;;21.20;99.90;;;;;;5006630;28;20113;-61
2022/10/30 10:06:28;;;;;;;18.52;10.73;;;20.80;99.90;;;;;;5014360;28;20045;-61
2022/10/30 10:09:03;;;;;;;23.13;10.38;;;21.20;99.90;;;;;;5004256;28;20090;-61
2022/10/30 10:11:34;;;;;;;18.38;10.70;;;21.00;99.90;;;;;;5004273;28;20050;-61
2022/10/30 10:14:12;;;;;;;16.83;11.00;;;21.20;99.90;;;;;;5002813;28;20444;-61
2022/10/30 10:16:40;;;;;;;17.83;10.45;;;21.10;99.90;;;;;;5002497;28;20064;-61
2022/10/30 10:19:25;;;;;;;17.70;10.63;;;21.60;99.90;;;;;;5003218;28;20052;-61
2022/10/30 10:21:57;;;;;;;17.23;10.63;;;22.10;99.90;;;;;;5003924;28;20073;-61
2022/10/30 10:24:30;;;;;;;21.65;11.10;;;21.80;99.90;;;;;;5003289;28;20126;-61
2022/10/30 10:27:32;;;;;;;20.33;11.65;;;22.00;99.90;;;;;;5003807;28;20080;-60
2022/10/30 10:30:20;;;;;;;22.48;11.15;;;21.70;99.90;;;;;;4978220;28;20057;-62
2022/10/30 10:33:01;;;;;;;15.60;10.65;;;22.00;99.90;;;;;;5004083;28;20686;-60
2022/10/30 10:35:45;;;;;;;20.58;10.48;;;22.10;99.90;;;;;;5003468;28;20061;-60
2022/10/30 10:38:52;;;;;;;17.02;10.30;;;21.80;99.90;;;;;;5004202;28;20841;-60
2022/10/30 10:41:28;;;;;;;21.33;10.23;;;21.30;99.90;;;;;;4995912;28;20093;-60
2022/10/30 10:44:14;;;;;;;17.00;10.02;;;21.40;99.90;;;;;;5002863;28;20146;-59
2022/10/30 10:47:04;;;;;;;22.05;10.55;;;21.00;99.90;;;;;;5002822;28;20970;-59
2022/10/30 10:49:50;;;;;;;23.35;11.20;;;20.90;99.90;;;;;;5012526;28;20129;-61
2022/10/30 10:52:35;;;;;;;26.15;11.05;;;21.10;99.90;;;;;;5022212;28;20060;-61
2022/10/30 10:55:13;;;;;;;19.55;10.90;;;21.30;99.90;;;;;;5022487;28;20053;-60
2022/10/30 10:57:40;;;;;;;19.00;10.63;;;21.40;99.90;;;;;;5004174;28;20045;-60
2022/10/30 11:00:21;;;;;;;20.65;9.88;;;21.90;99.90;;;;;;5021955;28;20045;-61
2022/10/30 11:03:08;;;;;;;18.00;10.07;;;22.00;99.90;;;;;;5005258;28;20524;-61
2022/10/30 11:05:55;;;;;;;17.77;9.63;;;21.80;99.90;;;;;;5016559;28;20370;-62
2022/10/30 11:08:32;;;;;;;19.15;9.82;;;21.60;99.90;;;;;;5004747;28;20050;-61
2022/10/30 11:11:00;;;;;;;16.38;9.40;;;21.80;99.90;;;;;;5002731;28;20393;-62
2022/10/30 11:13:33;;;;;;;15.73;8.93;;;21.90;99.90;;;;;;4999341;28;20050;-61
2022/10/30 11:16:16;;;;;;;14.38;9.02;;;21.70;99.90;;;;;;5017021;28;20136;-61
2022/10/30 11:18:45;;;;;;;18.73;9.13;;;21.70;99.90;;;;;;5021249;28;20082;-61
2022/10/30 11:21:24;;;;;;;17.67;8.15;;;21.80;99.90;;;;;;5021496;28;20088;-60
2022/10/30 11:23:50;;;;;;;14.40;9.02;;;21.90;99.90;;;;;;5022538;28;20552;-61
2022/10/30 11:26:16;;;;;;;16.38;8.63;;;21.60;99.90;;;;;;5004001;28;20411;-62
2022/10/30 11:28:54;;;;;;;16.90;8.93;;;21.70;99.90;;;;;;5020366;28;20045;-60
2022/10/30 11:31:43;;;;;;;16.35;9.23;;;21.50;99.90;;;;;;5021353;28;20053;-61
2022/10/30 11:34:17;;;;;;;17.05;8.02;;;21.30;99.90;;;;;;5000321;28;20515;-61
2022/10/30 11:36:44;;;;;;;18.13;8.38;;;21.40;99.90;;;;;;5022715;28;20052;-61
2022/10/30 11:39:18;;;;;;;23.33;9.20;;;21.30;99.90;;;;;;5021541;28;20042;-62
2022/10/30 11:42:08;;;;;;;17.35;8.93;;;21.50;99.90;;;;;;5021231;28;20053;-62
2022/10/30 11:44:44;;;;;;;14.75;8.45;;;21.40;99.90;;;;;;5009543;28;20053;-61
2022/10/30 11:47:13;;;;;;;14.35;8.80;;;21.30;99.90;;;;;;5021315;28;20046;-62
2022/10/30 11:49:50;;;;;;;16.17;8.68;;;21.30;99.90;;;;;;5021617;28;20128;-61
2022/10/30 11:52:21;;;;;;;15.85;8.30;;;21.20;99.90;;;;;;5020897;28;20053;-62
2022/10/30 11:54:53;;;;;;;18.10;9.07;;;21.40;99.90;;;;;;5021949;28;20068;-62
2022/10/30 11:57:31;;;;;;;16.33;8.43;;;21.30;99.90;;;;;;5021792;28;20148;-62
2022/10/30 11:59:57;;;;;;;16.67;9.02;;;21.10;99.90;;;;;;5020832;28;20041;-61
2022/10/30 12:02:28;;;;;;;15.88;8.35;;;21.10;99.90;;;;;;5021772;28;20261;-62
2022/10/30 12:04:59;;;;;;;15.80;7.95;;;21.20;99.90;;;;;;5017799;28;20106;-62
2022/10/30 12:07:32;;;;;;;16.55;8.40;;;21.20;99.90;;;;;;5011651;28;20045;-62
2022/10/30 12:09:58;;;;;;;18.73;8.15;;;21.20;99.90;;;;;;5020698;28;20041;-62
2022/10/30 12:12:31;;;;;;;16.60;8.02;;;21.10;99.90;;;;;;5025445;28;20088;-62
2022/10/30 12:15:13;;;;;;;15.70;7.85;;;21.20;99.90;;;;;;5006534;28;20111;-62
2022/10/30 12:17:40;;;;;;;13.25;7.50;;;21.20;99.90;;;;;;5025327;28;20044;-62
2022/10/30 12:20:12;;;;;;;16.02;7.95;;;20.90;99.90;;;;;;5024169;28;20447;-61
2022/10/30 12:22:38;;;;;;;19.35;9.18;;;20.70;99.90;;;;;;5025298;28;20116;-62
2022/10/30 12:25:23;;;;;;;17.67;8.60;;;20.70;99.90;;;;;;5024950;28;20124;-62
2022/10/30 12:27:50;;;;;;;20.80;9.10;;;20.70;99.90;;;;;;5025050;28;20100;-61
2022/10/30 12:30:20;;;;;;;17.25;9.80;;;20.80;99.90;;;;;;5006034;28;20045;-61
2022/10/30 12:32:50;;;;;;;17.90;9.48;;;20.80;99.90;;;;;;5024468;28;20073;-64
2022/10/30 12:35:41;;;;;;;18.50;10.07;;;20.80;99.90;;;;;;5007554;28;20053;-61
2022/10/30 12:38:39;;;;;;;21.88;8.90;;;20.60;99.90;;;;;;5007801;28;20053;-63
2022/10/30 12:41:23;;;;;;;20.25;8.63;;;20.70;99.90;;;;;;5023118;28;20053;-64
2022/10/30 12:43:58;;;;;;;14.77;8.80;;;20.80;99.90;;;;;;5024292;28;20068;-67